Time;durP1;ratioP1;P1;durP2;ratioP2;P2;SDS_P1;SDS_P2;PMS_P1;PMS_P2;Temp;Humidity;BMP_temperature;BMP_pressure;BME280_temperature;BME280_humidity;BME280_pressure;Samples;Min_cycle;Max_cycle;Signal;HPM_P1;HPM_P2
2022/05/17 00:02:20;;;;;;;8.05;5.40;;;;;;;17.92;100.00;100951.78;5188088;28;20417;-75
2022/05/17 00:04:50;;;;;;;8.27;5.05;;;;;;;17.87;100.00;100953.00;5189983;28;20029;-76
2022/05/17 00:07:21;;;;;;;9.15;5.78;;;;;;;17.94;100.00;100949.03;5190121;28;20569;-75
2022/05/17 00:09:51;;;;;;;6.83;5.47;;;;;;;17.81;100.00;100950.72;5188390;28;20038;-75
2022/05/17 00:12:21;;;;;;;8.77;5.70;;;;;;;17.95;100.00;100958.66;5189786;28;20298;-75
2022/05/17 00:14:52;;;;;;;10.00;5.63;;;;;;;17.88;100.00;100962.63;5189338;28;20037;-76
2022/05/17 00:17:22;;;;;;;8.10;5.43;;;;;;;17.87;100.00;100963.56;5191771;28;20608;-72
2022/05/17 00:19:53;;;;;;;9.50;5.27;;;;;;;17.69;100.00;100967.31;5190276;28;20021;-76
2022/05/17 00:22:23;;;;;;;7.70;5.10;;;;;;;17.59;100.00;100960.84;5178574;28;20311;-75
2022/05/17 00:24:53;;;;;;;12.00;5.63;;;;;;;17.58;100.00;100960.00;5190646;28;20025;-75
2022/05/17 00:27:24;;;;;;;12.27;5.97;;;;;;;17.50;100.00;100958.75;5192574;28;20103;-75
2022/05/17 00:29:54;;;;;;;10.97;5.30;;;;;;;17.59;100.00;100958.19;5190947;28;20648;-75
2022/05/17 00:32:24;;;;;;;10.43;5.57;;;;;;;17.46;100.00;100954.59;5189334;28;20289;-76
2022/05/17 00:34:55;;;;;;;9.70;5.70;;;;;;;17.38;100.00;100957.66;5187860;28;20048;-76
2022/05/17 00:37:26;;;;;;;11.43;5.80;;;;;;;17.35;100.00;100962.25;5190439;28;20288;-75
2022/05/17 00:39:56;;;;;;;12.90;5.90;;;;;;;17.10;100.00;100951.31;5188646;28;20506;-75
2022/05/17 00:42:26;;;;;;;11.70;5.97;;;;;;;17.21;100.00;100959.50;5189898;28;20061;-75
2022/05/17 00:44:56;;;;;;;11.17;6.20;;;;;;;17.36;100.00;100948.09;5188607;28;20029;-75
2022/05/17 00:47:41;;;;;;;10.63;6.23;;;;;;;17.25;100.00;100958.38;5189474;28;20287;-75
2022/05/17 00:50:29;;;;;;;8.73;5.80;;;;;;;17.08;100.00;100954.06;5187826;28;20692;-75
2022/05/17 00:53:02;;;;;;;11.50;6.03;;;;;;;17.17;100.00;100958.81;5185333;28;20550;-76
2022/05/17 00:55:38;;;;;;;11.70;6.50;;;;;;;17.20;100.00;100963.09;5182938;28;20482;-76
2022/05/17 00:58:23;;;;;;;10.43;5.82;;;;;;;16.99;100.00;100953.75;5190830;28;20033;-75
2022/05/17 01:01:02;;;;;;;9.10;5.72;;;;;;;17.23;100.00;100955.84;5187408;28;20054;-75
2022/05/17 01:03:46;;;;;;;10.57;6.00;;;;;;;17.27;100.00;100954.72;5185725;28;20022;-75
2022/05/17 01:06:18;;;;;;;9.98;5.85;;;;;;;17.32;100.00;100952.69;5187737;28;20029;-76
2022/05/17 01:08:48;;;;;;;10.25;6.80;;;;;;;17.37;100.00;100955.97;5187455;28;20490;-75
2022/05/17 01:11:19;;;;;;;9.95;6.10;;;;;;;17.08;100.00;100950.56;5187100;28;20087;-75
2022/05/17 01:16:38;;;;;;;10.90;6.47;;;;;;;17.14;100.00;100944.97;5186389;28;20116;-76
2022/05/17 01:19:09;;;;;;;13.70;6.60;;;;;;;17.20;100.00;100948.09;5188390;28;20210;-75
2022/05/17 01:21:40;;;;;;;18.00;8.98;;;;;;;17.21;100.00;100951.59;5183035;28;20114;-75
2022/05/17 01:24:10;;;;;;;11.32;7.50;;;;;;;16.95;100.00;100953.03;5193416;28;20173;-75
2022/05/17 01:26:43;;;;;;;17.38;9.60;;;;;;;17.20;100.00;100957.81;5196318;28;20037;-76
2022/05/17 01:29:14;;;;;;;15.07;8.35;;;;;;;17.18;100.00;100947.31;5190215;28;20033;-75
2022/05/17 01:31:45;;;;;;;15.07;8.13;;;;;;;17.06;100.00;100952.44;5186871;28;20033;-74
2022/05/17 01:34:16;;;;;;;14.15;8.68;;;;;;;17.10;100.00;100943.41;5187260;28;20038;-76
2022/05/17 01:36:47;;;;;;;14.53;8.70;;;;;;;17.12;100.00;100946.84;5187112;28;20030;-76
2022/05/17 01:39:17;;;;;;;13.52;8.13;;;;;;;17.17;100.00;100947.41;5188349;28;20279;-76
2022/05/17 01:41:47;;;;;;;16.43;9.27;;;;;;;16.93;100.00;100941.72;5186838;28;20037;-75
2022/05/17 01:44:17;;;;;;;17.50;10.17;;;;;;;17.18;100.00;100943.84;5216308;23;20308;-74
2022/05/17 01:46:48;;;;;;;16.43;9.67;;;;;;;17.07;100.00;100952.38;5196677;28;20449;-74
2022/05/17 01:49:18;;;;;;;15.13;9.63;;;;;;;16.99;100.00;100945.81;5197447;28;20283;-74
2022/05/17 01:51:48;;;;;;;21.75;10.35;;;;;;;16.83;100.00;100943.16;5211454;28;20310;-74
2022/05/17 01:54:19;;;;;;;16.30;10.90;;;;;;;16.99;100.00;100949.28;5197173;28;20037;-73
2022/05/17 01:56:49;;;;;;;22.07;12.40;;;;;;;16.96;100.00;100944.19;5197450;28;20572;-73
2022/05/17 01:59:19;;;;;;;19.63;11.45;;;;;;;16.91;100.00;100935.69;5196528;28;20302;-73
2022/05/17 02:01:49;;;;;;;23.75;12.43;;;;;;;16.86;100.00;100942.16;5196806;28;20129;-73
2022/05/17 02:04:20;;;;;;;19.97;12.67;;;;;;;16.85;100.00;100945.72;5163737;28;20033;-73
2022/05/17 02:06:50;;;;;;;18.10;12.32;;;;;;;16.75;100.00;100938.41;5197415;28;20283;-73
2022/05/17 02:09:20;;;;;;;22.02;13.63;;;;;;;16.56;100.00;100946.44;5196989;28;20112;-72
2022/05/17 02:11:50;;;;;;;20.67;14.13;;;;;;;16.59;100.00;100942.81;5179002;28;20905;-73
2022/05/17 02:14:21;;;;;;;20.77;14.05;;;;;;;16.60;100.00;100950.66;5197337;28;20069;-73
2022/05/17 02:16:51;;;;;;;21.38;13.93;;;;;;;16.67;100.00;100944.09;5197613;28;20029;-73
2022/05/17 02:19:22;;;;;;;21.27;14.03;;;;;;;16.72;100.00;100949.97;5197390;28;20115;-73
2022/05/17 02:21:53;;;;;;;27.75;16.60;;;;;;;16.82;100.00;100948.53;5197133;28;20834;-73
2022/05/17 02:24:23;;;;;;;23.87;16.53;;;;;;;16.82;100.00;100948.53;5197296;28;20037;-73
2022/05/17 02:26:55;;;;;;;25.70;16.55;;;;;;;16.89;100.00;100944.59;5178184;28;20294;-73
2022/05/17 02:29:26;;;;;;;29.58;15.52;;;;;;;16.90;100.00;100948.94;5197061;28;20087;-73
2022/05/17 02:31:56;;;;;;;26.55;16.58;;;;;;;16.83;100.00;100953.72;5197009;28;20038;-73
2022/05/17 02:34:27;;;;;;;24.90;16.00;;;;;;;16.77;100.00;100953.22;5179968;28;20057;-73
2022/05/17 02:36:57;;;;;;;29.85;16.92;;;;;;;16.86;100.00;100956.22;5197305;28;20204;-73
2022/05/17 02:39:27;;;;;;;25.58;17.42;;;;;;;17.02;100.00;100948.28;5198091;28;20107;-73
2022/05/17 02:41:57;;;;;;;26.90;16.57;;;;;;;16.97;100.00;100950.34;5197585;28;20030;-73
2022/05/17 02:44:28;;;;;;;25.92;16.80;;;;;;;17.08;100.00;100945.28;5196354;28;20409;-73
2022/05/17 02:46:59;;;;;;;23.20;16.42;;;;;;;17.01;100.00;100952.69;5195944;28;20037;-73
2022/05/17 02:49:29;;;;;;;27.20;17.73;;;;;;;17.03;100.00;100949.97;5178121;28;20747;-73
2022/05/17 02:52:01;;;;;;;26.42;17.48;;;;;;;16.86;100.00;100948.28;5196792;28;20033;-73
2022/05/17 02:54:31;;;;;;;25.52;16.38;;;;;;;16.91;100.00;100945.38;5177906;28;20499;-73
2022/05/17 02:57:02;;;;;;;27.15;16.55;;;;;;;16.84;100.00;100954.59;5196805;28;20044;-73
2022/05/17 02:59:32;;;;;;;26.17;16.55;;;;;;;16.83;100.00;100963.44;5196783;28;20082;-73
2022/05/17 03:02:03;;;;;;;27.20;17.27;;;;;;;16.80;100.00;100960.97;5196865;28;20029;-73
2022/05/17 03:04:33;;;;;;;24.15;16.58;;;;;;;16.72;100.00;100964.97;5196782;28;20151;-73
2022/05/17 03:07:04;;;;;;;26.17;16.90;;;;;;;16.60;100.00;100971.75;5196964;28;20038;-73
2022/05/17 03:09:34;;;;;;;24.25;17.15;;;;;;;16.44;100.00;100976.16;5197258;28;20494;-73
2022/05/17 03:12:05;;;;;;;24.92;16.00;;;;;;;16.36;100.00;100973.06;5197350;28;20030;-73
2022/05/17 03:14:35;;;;;;;22.67;15.65;;;;;;;16.33;100.00;100980.22;5197325;28;20544;-73
2022/05/17 03:17:15;;;;;;;21.77;15.20;;;;;;;16.27;100.00;100976.16;5197103;28;20517;-73
2022/05/17 03:19:45;;;;;;;19.85;14.38;;;;;;;16.28;100.00;100984.91;5194029;28;20649;-73
2022/05/17 03:22:15;;;;;;;22.90;14.87;;;;;;;16.30;100.00;100983.03;5196654;28;20029;-73
2022/05/17 03:24:45;;;;;;;28.35;17.27;;;;;;;16.24;100.00;100983.38;5196154;28;20294;-73
2022/05/17 03:27:17;;;;;;;20.75;14.82;;;;;;;16.27;100.00;100984.06;5196074;28;20045;-73
2022/05/17 03:29:48;;;;;;;26.50;17.95;;;;;;;16.27;100.00;100988.47;5178960;28;20064;-73
2022/05/17 03:32:18;;;;;;;28.70;19.50;;;;;;;16.40;100.00;100982.50;5178611;28;20057;-73
2022/05/17 03:34:48;;;;;;;28.63;18.55;;;;;;;16.58;100.00;100989.44;5196784;28;20338;-73
2022/05/17 03:37:19;;;;;;;26.88;17.95;;;;;;;16.61;100.00;100991.94;5196384;28;20072;-73
2022/05/17 03:39:51;;;;;;;25.85;17.95;;;;;;;16.72;100.00;101002.75;5194980;28;20029;-73
2022/05/17 03:42:22;;;;;;;26.13;17.33;;;;;;;16.72;100.00;101002.75;5194995;28;20061;-73
2022/05/17 03:44:52;;;;;;;28.63;17.77;;;;;;;16.66;100.00;101008.38;5196739;28;20593;-73
2022/05/17 03:47:22;;;;;;;27.83;17.53;;;;;;;16.65;100.00;101011.97;5177420;28;20653;-73
2022/05/17 03:49:53;;;;;;;24.70;17.63;;;;;;;16.61;100.00;101010.41;5196217;28;20276;-73
2022/05/17 03:52:25;;;;;;;25.83;16.77;;;;;;;16.63;100.00;101021.75;5178649;28;20061;-73
2022/05/17 03:55:00;;;;;;;28.35;18.50;;;;;;;16.75;100.00;101012.31;5195270;28;20025;-73
2022/05/17 03:57:31;;;;;;;25.70;18.80;;;;;;;16.83;100.00;101019.72;5199997;28;20395;-73
2022/05/17 04:00:06;;;;;;;28.17;18.88;;;;;;;17.00;100.00;101009.09;5200483;28;20155;-73
2022/05/17 04:02:39;;;;;;;29.00;18.20;;;;;;;16.92;100.00;101007.81;5199359;28;20446;-72
2022/05/17 04:05:10;;;;;;;29.75;19.33;;;;;;;16.89;100.00;101015.91;5182459;28;20565;-73
2022/05/17 04:07:41;;;;;;;30.33;18.40;;;;;;;16.94;100.00;101024.44;5199760;28;20523;-73
2022/05/17 04:10:14;;;;;;;27.35;17.90;;;;;;;16.97;100.00;101019.81;5199585;28;20036;-73
2022/05/17 04:12:45;;;;;;;28.52;19.35;;;;;;;17.02;100.00;101016.94;5199823;28;20453;-73
2022/05/17 04:15:21;;;;;;;22.85;17.33;;;;;;;17.05;100.00;101019.41;5198857;28;20131;-73
2022/05/17 04:17:54;;;;;;;28.63;18.40;;;;;;;16.99;100.00;101022.41;5181554;28;20152;-73
2022/05/17 04:20:26;;;;;;;25.50;17.52;;;;;;;16.96;100.00;101041.06;5199732;28;20029;-73
2022/05/17 04:22:57;;;;;;;26.58;17.00;;;;;;;17.05;100.00;101028.22;5200088;28;20021;-73
2022/05/17 04:25:27;;;;;;;29.20;17.98;;;;;;;17.06;100.00;101029.03;5199433;28;20036;-73
2022/05/17 04:27:58;;;;;;;29.02;17.40;;;;;;;17.11;100.00;101032.31;5199648;28;20025;-72
2022/05/17 04:30:28;;;;;;;26.80;17.63;;;;;;;17.11;100.00;101032.31;5197643;28;20070;-73
2022/05/17 04:33:02;;;;;;;28.38;18.27;;;;;;;17.14;100.00;101042.69;5194436;28;20394;-73
2022/05/17 04:35:32;;;;;;;28.98;16.73;;;;;;;17.16;100.00;101040.81;5198490;28;20060;-73
2022/05/17 04:38:03;;;;;;;30.00;17.52;;;;;;;17.14;100.00;101037.41;5180957;28;20474;-73
2022/05/17 04:40:34;;;;;;;23.98;17.00;;;;;;;16.97;100.00;101048.03;5198758;28;20040;-73
2022/05/17 04:43:05;;;;;;;26.83;16.92;;;;;;;16.88;100.00;101040.59;5199371;28;20029;-73
2022/05/17 04:45:35;;;;;;;24.73;16.65;;;;;;;17.04;100.00;101044.13;5199429;28;20032;-73
2022/05/17 04:48:06;;;;;;;26.55;16.83;;;;;;;17.09;100.00;101034.16;5198997;28;20043;-73
2022/05/17 04:50:37;;;;;;;25.45;15.50;;;;;;;17.20;100.00;101037.94;5194591;28;20079;-73
2022/05/17 04:53:07;;;;;;;25.30;16.13;;;;;;;17.08;100.00;101038.59;5180269;28;20033;-73
2022/05/17 04:55:38;;;;;;;23.70;14.52;;;;;;;17.08;100.00;101043.00;5181244;28;20037;-73
2022/05/17 04:58:08;;;;;;;23.07;14.67;;;;;;;17.23;100.00;101047.47;5199226;28;20025;-73
2022/05/17 05:00:39;;;;;;;20.38;13.88;;;;;;;17.35;100.00;101041.53;5198961;28;20628;-73
2022/05/17 05:03:09;;;;;;;22.50;13.32;;;;;;;17.27;100.00;101044.56;5199161;28;20590;-73
2022/05/17 05:05:39;;;;;;;24.85;13.85;;;;;;;17.18;100.00;101049.50;5199329;28;20103;-73
2022/05/17 05:08:10;;;;;;;20.67;14.17;;;;;;;17.08;100.00;101051.81;5198011;28;20076;-72
2022/05/17 05:10:42;;;;;;;23.70;13.25;;;;;;;17.30;100.00;101054.97;5198704;28;20308;-73
2022/05/17 05:13:20;;;;;;;19.02;13.00;;;;;;;17.30;100.00;101056.78;5198715;28;20406;-73
2022/05/17 05:15:52;;;;;;;22.98;13.65;;;;;;;17.50;100.00;101060.03;5197639;28;20095;-73
2022/05/17 05:18:23;;;;;;;23.60;12.68;;;;;;;17.47;100.00;101057.56;5198052;28;20033;-73
2022/05/17 05:21:09;;;;;;;21.58;13.02;;;;;;;17.51;100.00;101060.88;5198179;28;20675;-73
2022/05/17 05:23:41;;;;;;;19.40;12.93;;;;;;;17.28;100.00;101062.13;5177131;28;20033;-73
2022/05/17 05:26:13;;;;;;;21.30;13.00;;;;;;;17.63;100.00;101049.63;5197753;28;20092;-71
2022/05/17 05:28:44;;;;;;;19.83;12.65;;;;;;;17.74;100.00;101060.44;5197710;28;20124;-73
2022/05/17 05:31:15;;;;;;;21.52;12.18;;;;;;;17.80;100.00;101065.38;5197832;28;20597;-72
2022/05/17 05:33:45;;;;;;;19.85;11.90;;;;;;;17.74;100.00;101063.94;5198331;28;20422;-73
2022/05/17 05:36:16;;;;;;;21.38;12.68;;;;;;;17.53;100.00;101059.00;5196565;28;20041;-73
2022/05/17 05:38:46;;;;;;;19.45;11.63;;;;;;;17.56;100.00;101072.03;5197024;28;20098;-73
2022/05/17 05:41:16;;;;;;;20.33;12.40;;;;;;;17.74;100.00;101071.00;5179938;28;20346;-73
2022/05/17 05:43:47;;;;;;;21.38;12.45;;;;;;;17.83;100.00;101070.50;5179587;28;20057;-73
2022/05/17 05:46:17;;;;;;;19.15;11.80;;;;;;;17.76;100.00;101075.28;5179893;28;20029;-73
2022/05/17 05:48:47;;;;;;;18.75;11.98;;;;;;;17.94;100.00;101076.00;5196567;28;20138;-73
2022/05/17 05:51:18;;;;;;;21.20;11.47;;;;;;;17.92;100.00;101078.75;5195033;28;20139;-73
2022/05/17 05:53:48;;;;;;;21.52;11.80;;;;;;;18.09;100.00;101083.91;5196052;28;20600;-73
2022/05/17 05:56:19;;;;;;;20.48;11.35;;;;;;;18.21;100.00;101087.63;5195362;28;20037;-73
2022/05/17 05:58:49;;;;;;;21.98;12.38;;;;;;;17.90;100.00;101093.88;5196111;28;20373;-73
2022/05/17 06:01:19;;;;;;;20.50;11.50;;;;;;;17.90;100.00;101098.28;5196619;28;20033;-73
2022/05/17 06:03:50;;;;;;;20.00;12.00;;;;;;;17.88;100.00;101094.88;5198023;28;20359;-73
2022/05/17 06:06:20;;;;;;;20.10;11.77;;;;;;;17.81;100.00;101096.19;5179748;28;20635;-73
2022/05/17 06:08:51;;;;;;;20.55;12.07;;;;;;;17.79;100.00;101098.91;5197562;28;20033;-73
2022/05/17 06:11:22;;;;;;;23.00;11.85;;;;;;;17.84;100.00;101099.47;5197639;28;20060;-72
2022/05/17 06:13:52;;;;;;;22.83;12.07;;;;;;;18.10;100.00;101096.19;5180043;28;20413;-73
2022/05/17 06:16:23;;;;;;;21.37;11.23;;;;;;;18.19;100.00;101105.41;5197453;28;20037;-73
2022/05/17 06:18:53;;;;;;;18.75;10.88;;;;;;;18.27;100.00;101100.50;5197116;28;20334;-73
2022/05/17 06:21:23;;;;;;;21.33;10.87;;;;;;;18.41;100.00;101100.56;5197379;28;20131;-73
2022/05/17 06:23:54;;;;;;;19.00;11.02;;;;;;;18.38;100.00;101103.41;5197320;28;20280;-73
2022/05/17 06:26:24;;;;;;;20.58;11.20;;;;;;;18.35;100.00;101100.94;5197575;28;20573;-72
2022/05/17 06:28:54;;;;;;;17.23;10.77;;;;;;;18.53;100.00;101110.44;5197190;28;20033;-73
2022/05/17 06:31:25;;;;;;;19.98;11.00;;;;;;;18.39;100.00;101105.97;5178998;28;20065;-73
2022/05/17 06:33:55;;;;;;;18.50;10.02;;;;;;;18.63;100.00;101108.94;5195762;28;20051;-73
2022/05/17 06:36:25;;;;;;;18.63;9.80;;;;;;;18.69;100.00;101105.94;5197013;28;20554;-73
2022/05/17 06:38:56;;;;;;;18.45;10.30;;;;;;;18.65;100.00;101107.06;5196854;28;20056;-73
2022/05/17 06:41:26;;;;;;;18.97;9.80;;;;;;;18.95;100.00;101114.84;5197463;28;20068;-73
2022/05/17 06:43:56;;;;;;;21.15;10.40;;;;;;;18.82;100.00;101115.69;5197128;28;20272;-73
2022/05/17 06:46:26;;;;;;;17.30;9.97;;;;;;;18.75;100.00;101111.72;5196929;28;20337;-73
2022/05/17 06:48:57;;;;;;;22.80;10.18;;;;;;;18.68;100.00;101105.06;5196932;28;20287;-73
2022/05/17 06:51:27;;;;;;;17.27;10.03;;;;;;;18.82;100.00;101110.41;5196715;28;20057;-73
2022/05/17 06:53:57;;;;;;;21.55;10.57;;;;;;;19.07;100.00;101114.09;5195700;28;21201;-73
2022/05/17 06:56:28;;;;;;;20.47;11.60;;;;;;;19.41;100.00;101108.41;5197161;28;20025;-73
2022/05/17 06:58:58;;;;;;;16.58;9.60;;;;;;;19.56;100.00;101104.81;5179018;28;20029;-73
2022/05/17 07:01:28;;;;;;;16.25;9.63;;;;;;;19.60;100.00;101108.94;5197509;28;20044;-73
2022/05/17 07:03:59;;;;;;;19.57;10.03;;;;;;;19.82;98.40;101103.97;5196998;28;20030;-73
2022/05/17 07:06:30;;;;;;;17.60;9.57;;;;;;;19.76;100.00;101109.66;5196675;28;20594;-73
2022/05/17 07:09:00;;;;;;;22.10;10.25;;;;;;;21.05;92.74;101103.53;5196773;28;20034;-73
2022/05/17 07:14:19;;;;;;;14.02;7.95;;;;;;;24.05;82.71;101089.03;5194212;28;20358;-73
2022/05/17 07:16:49;;;;;;;18.37;8.60;;;;;;;22.93;83.87;101094.59;5195878;28;20029;-73
2022/05/17 07:19:19;;;;;;;17.70;8.20;;;;;;;24.45;77.26;101090.03;5197074;28;20256;-73
2022/05/17 07:21:50;;;;;;;15.97;7.10;;;;;;;25.21;74.14;101099.41;5196546;28;20295;-74
2022/05/17 07:24:20;;;;;;;11.90;7.20;;;;;;;26.68;70.80;101091.22;5196555;28;20026;-74
2022/05/17 07:26:50;;;;;;;16.00;7.63;;;;;;;26.92;68.58;101101.31;5196668;28;20037;-74
2022/05/17 07:29:21;;;;;;;17.27;7.60;;;;;;;24.80;72.90;101115.53;5196110;28;20075;-74
2022/05/17 07:31:51;;;;;;;14.95;8.05;;;;;;;23.58;77.59;101113.38;5199688;28;20795;-74
2022/05/17 07:34:21;;;;;;;18.17;7.65;;;;;;;23.64;78.30;101111.06;5183093;28;20083;-73
2022/05/17 07:36:52;;;;;;;20.38;7.88;;;;;;;22.58;82.88;101116.09;5200655;28;20508;-73
2022/05/17 07:39:22;;;;;;;16.80;8.40;;;;;;;22.76;81.71;101112.84;5200250;28;20284;-73
2022/05/17 07:41:52;;;;;;;14.98;7.65;;;;;;;24.55;76.06;101109.72;5199022;28;20135;-73
2022/05/17 07:44:22;;;;;;;16.40;7.40;;;;;;;26.51;69.80;101099.97;5218967;23;20048;-75
2022/05/17 07:46:53;;;;;;;13.87;7.40;;;;;;;25.49;73.97;101099.53;5195564;28;20022;-73
2022/05/17 07:49:23;;;;;;;14.18;6.28;;;;;;;25.56;74.23;101099.81;5181669;28;20201;-75
2022/05/17 07:51:54;;;;;;;13.13;5.77;;;;;;;28.73;63.63;101085.72;5191539;28;20502;-75
2022/05/17 07:54:24;;;;;;;13.57;6.10;;;;;;;29.34;61.84;101085.59;5183295;28;20292;-74
2022/05/17 07:56:54;;;;;;;14.80;5.87;;;;;;;29.55;62.09;101083.38;5185568;28;20491;-75
2022/05/17 07:59:25;;;;;;;11.70;5.57;;;;;;;29.57;60.32;101084.06;5189660;28;20036;-74
2022/05/17 08:01:55;;;;;;;11.13;5.40;;;;;;;28.61;63.00;101096.09;5190351;28;20055;-74
2022/05/17 08:04:25;;;;;;;8.48;5.10;;;;;;;29.56;61.38;101082.38;5188947;28;20061;-74
2022/05/17 08:06:58;;;;;;;12.70;5.07;;;;;;;30.70;60.77;101085.91;5172706;28;20376;-74
2022/05/17 08:09:29;;;;;;;10.82;5.63;;;;;;;28.28;64.28;101089.53;5187307;28;20037;-74
2022/05/17 08:11:59;;;;;;;12.13;5.43;;;;;;;28.80;63.42;101092.19;5190969;28;20029;-74
2022/05/17 08:14:30;;;;;;;13.50;6.17;;;;;;;27.11;64.81;101095.06;5188552;28;20380;-74
2022/05/17 08:17:01;;;;;;;10.43;5.33;;;;;;;27.55;66.75;101092.44;5190026;28;20279;-74
2022/05/17 08:19:31;;;;;;;9.90;4.93;;;;;;;28.82;64.96;101087.47;5181665;28;20050;-74
2022/05/17 08:22:03;;;;;;;11.97;4.70;;;;;;;28.65;63.70;101090.22;5181859;28;20514;-74
2022/05/17 08:27:31;;;;;;;11.55;5.93;;;;;;;28.89;63.42;101087.72;5186928;28;20159;-74
2022/05/17 08:30:10;;;;;;;12.75;5.18;;;;;;;28.92;61.45;101095.50;5190480;28;20375;-74
2022/05/17 08:35:42;;;;;;;10.32;5.05;;;;;;;28.61;62.50;101091.53;5183921;28;20048;-74
2022/05/17 08:38:14;;;;;;;9.82;5.00;;;;;;;29.98;60.07;101099.31;5191653;28;20583;-74
2022/05/17 08:41:05;;;;;;;9.38;4.57;;;;;;;27.30;64.32;101101.19;5190420;28;20055;-74
2022/05/17 08:44:00;;;;;;;8.65;4.40;;;;;;;26.21;66.88;101102.78;5190230;28;20273;-74
2022/05/17 08:46:56;;;;;;;9.38;4.43;;;;;;;26.13;67.82;101100.81;5189284;28;20137;-75
2022/05/17 08:49:51;;;;;;;10.10;5.50;;;;;;;26.81;66.33;101097.94;5152586;28;20356;-75
2022/05/17 08:52:24;;;;;;;8.80;5.18;;;;;;;26.20;68.49;101109.13;5182039;28;20077;-74
2022/05/17 08:55:24;;;;;;;10.65;5.05;;;;;;;25.54;70.45;101105.34;5180444;28;20057;-74
2022/05/17 08:57:59;;;;;;;13.48;5.53;;;;;;;25.50;71.35;101101.22;5167963;28;20046;-74
2022/05/17 09:00:37;;;;;;;9.93;5.15;;;;;;;25.42;73.42;101095.72;5169596;28;20116;-74
2022/05/17 09:03:23;;;;;;;9.95;5.25;;;;;;;24.92;72.55;101098.41;5183003;28;20038;-74
2022/05/17 09:06:23;;;;;;;13.00;5.20;;;;;;;25.76;73.08;101098.88;5170730;28;20052;-74
2022/05/17 09:09:20;;;;;;;11.35;4.90;;;;;;;27.08;67.70;101096.16;5181523;28;20044;-75
2022/05/17 09:11:50;;;;;;;11.93;5.53;;;;;;;27.22;67.22;101093.03;5185851;28;20479;-75
2022/05/17 09:14:25;;;;;;;11.02;4.15;;;;;;;26.60;69.41;101093.75;5188998;28;20037;-75
2022/05/17 09:17:04;;;;;;;7.22;3.88;;;;;;;27.73;66.26;101098.72;5189314;28;20037;-75
2022/05/17 09:19:34;;;;;;;7.63;3.78;;;;;;;29.25;61.23;101100.88;5169022;28;20166;-74
2022/05/17 09:22:06;;;;;;;7.83;3.17;;;;;;;28.86;61.58;101105.00;5190851;28;20025;-74
2022/05/17 09:24:43;;;;;;;9.38;3.08;;;;;;;28.70;61.16;101105.88;5182132;28;20022;-75
2022/05/17 09:27:50;;;;;;;8.77;2.97;;;;;;;27.47;63.97;101103.09;5185688;28;20149;-74
2022/05/17 09:30:23;;;;;;;7.85;2.80;;;;;;;25.95;67.37;101118.56;5095699;29;20110;-74
2022/05/17 09:33:11;;;;;;;8.95;2.72;;;;;;;26.83;66.41;101109.38;5176737;28;20095;-74
2022/05/17 09:36:02;;;;;;;6.32;2.80;;;;;;;26.18;64.94;101103.91;5183428;28;20542;-74
2022/05/17 09:38:35;;;;;;;6.75;2.70;;;;;;;25.97;66.61;101103.19;5178585;28;20037;-73
2022/05/17 09:41:08;;;;;;;6.30;2.60;;;;;;;25.29;69.64;101107.66;5182830;28;20022;-74
2022/05/17 09:43:39;;;;;;;8.23;2.80;;;;;;;24.45;70.79;101109.63;5185012;28;20021;-73
2022/05/17 09:46:10;;;;;;;9.20;3.00;;;;;;;24.44;73.00;101107.94;5185171;28;20037;-74
2022/05/17 09:54:46;;;;;;;9.80;3.45;;;;;;;24.18;74.21;101117.25;5177278;28;20053;-74
2022/05/17 09:57:24;;;;;;;7.47;2.65;;;;;;;25.73;71.79;101105.38;5187934;28;20033;-74
2022/05/17 10:00:12;;;;;;;8.13;2.33;;;;;;;25.35;67.83;101109.78;5190857;28;20053;-74
2022/05/17 10:02:57;;;;;;;8.52;2.40;;;;;;;25.25;67.90;101115.09;5171354;28;20021;-74
2022/05/17 10:05:29;;;;;;;7.22;1.95;;;;;;;24.87;69.47;101122.03;5189208;28;20033;-74
2022/05/17 10:08:24;;;;;;;8.77;2.55;;;;;;;24.35;70.06;101114.03;5191571;28;20415;-74
2022/05/17 10:11:11;;;;;;;8.90;2.80;;;;;;;23.63;73.24;101122.72;5190393;28;20026;-74
2022/05/17 10:14:00;;;;;;;7.90;2.33;;;;;;;23.25;75.17;101114.28;5184701;28;20034;-74
2022/05/17 10:16:47;;;;;;;9.38;2.40;;;;;;;23.07;75.04;101122.84;5193350;28;20048;-74
2022/05/17 10:19:39;;;;;;;9.00;2.22;;;;;;;22.88;76.36;101126.06;5187228;28;20403;-74
2022/05/17 10:22:33;;;;;;;10.32;2.17;;;;;;;22.99;74.94;101112.75;5184549;28;20073;-74
2022/05/17 10:25:31;;;;;;;9.45;2.03;;;;;;;22.86;75.40;101114.69;5181372;28;20025;-74
2022/05/17 10:28:09;;;;;;;4.72;1.80;;;;;;;23.00;75.43;101109.13;5179428;28;20025;-74
2022/05/17 10:30:52;;;;;;;7.55;1.70;;;;;;;22.94;74.90;101114.94;5183250;28;20041;-73
2022/05/17 10:33:35;;;;;;;9.15;2.03;;;;;;;22.84;74.38;101121.13;5183470;28;20084;-74
2022/05/17 10:36:24;;;;;;;8.23;1.80;;;;;;;23.06;74.72;101113.13;5183568;28;20452;-74
2022/05/17 10:39:33;;;;;;;6.38;1.77;;;;;;;23.69;73.29;101116.88;5170836;28;20034;-74
2022/05/17 10:42:04;;;;;;;8.07;2.03;;;;;;;23.90;71.70;101107.16;5187627;28;20036;-74
2022/05/17 10:44:45;;;;;;;6.70;1.80;;;;;;;23.87;73.32;101106.56;5163633;28;20022;-74
2022/05/17 10:47:33;;;;;;;5.35;1.73;;;;;;;24.16;72.16;101108.53;5186593;28;20433;-74
2022/05/17 10:50:29;;;;;;;7.78;1.88;;;;;;;24.13;70.30;101106.13;5179954;28;20033;-74
2022/05/17 10:53:25;;;;;;;5.13;1.40;;;;;;;24.06;69.54;101099.56;5190016;28;20036;-74
2022/05/17 10:56:39;;;;;;;6.38;1.52;;;;;;;24.13;68.95;101103.44;5178448;28;20021;-74
2022/05/17 10:59:43;;;;;;;5.53;1.40;;;;;;;24.06;68.19;101093.41;5136790;28;20072;-74
2022/05/17 11:02:13;;;;;;;5.78;1.80;;;;;;;24.11;68.44;101092.03;5185322;28;20029;-74
2022/05/17 11:05:24;;;;;;;7.63;2.07;;;;;;;24.08;69.11;101084.25;5191288;28;20528;-75
2022/05/17 11:07:58;;;;;;;7.35;1.40;;;;;;;24.27;68.43;101087.13;5192310;28;20797;-74
2022/05/17 11:10:57;;;;;;;5.93;1.60;;;;;;;24.26;67.43;101092.56;5192785;28;20419;-75
2022/05/17 11:13:37;;;;;;;6.57;1.60;;;;;;;24.54;68.46;101083.97;5192697;28;20099;-75
2022/05/17 11:16:19;;;;;;;8.82;1.70;;;;;;;24.80;68.08;101088.78;5188500;28;20557;-75
2022/05/17 11:19:10;;;;;;;5.97;1.63;;;;;;;24.81;68.78;101090.47;5195492;28;20116;-75
2022/05/17 11:22:00;;;;;;;5.20;1.40;;;;;;;24.64;67.55;101088.41;5170805;28;20414;-75
2022/05/17 11:25:02;;;;;;;5.15;1.20;;;;;;;24.65;65.01;101090.09;5187387;28;20032;-74
2022/05/17 11:27:38;;;;;;;6.75;1.40;;;;;;;24.77;66.66;101084.53;5190954;28;20624;-74
2022/05/17 11:30:25;;;;;;;4.68;1.25;;;;;;;24.90;65.49;101084.31;5179336;28;20021;-74
2022/05/17 11:33:21;;;;;;;4.95;1.35;;;;;;;24.35;66.58;101081.13;5186952;28;20091;-74
2022/05/17 11:35:55;;;;;;;5.60;1.27;;;;;;;24.95;66.93;101082.94;5189147;28;20475;-74
2022/05/17 11:38:31;;;;;;;5.93;1.70;;;;;;;24.73;64.56;101079.56;5188400;28;20528;-74
2022/05/17 11:41:05;;;;;;;5.57;1.30;;;;;;;24.61;63.22;101093.16;5173636;28;20033;-74
2022/05/17 11:43:44;;;;;;;6.50;1.42;;;;;;;24.60;62.14;101094.13;5190092;28;20487;-74
2022/05/17 11:46:39;;;;;;;3.42;1.00;;;;;;;24.94;60.34;101089.25;5185734;28;20030;-74
2022/05/17 11:49:12;;;;;;;5.88;0.90;;;;;;;24.81;60.13;101082.44;5184037;28;20087;-74
2022/05/17 11:52:13;;;;;;;2.42;0.75;;;;;;;24.74;58.54;101075.91;5170920;28;20036;-74
2022/05/17 11:54:46;;;;;;;6.57;1.20;;;;;;;24.90;60.59;101078.97;5154176;28;20045;-74
2022/05/17 11:57:16;;;;;;;3.83;0.90;;;;;;;25.02;59.79;101061.84;5191360;28;20072;-75
2022/05/17 11:59:58;;;;;;;3.03;0.90;;;;;;;24.95;60.22;101076.75;5169684;28;20464;-75
2022/05/17 12:02:52;;;;;;;5.22;1.10;;;;;;;25.04;59.37;101075.94;5170295;28;20479;-74
2022/05/17 12:05:38;;;;;;;5.80;1.30;;;;;;;24.93;58.67;101074.19;5185028;28;20034;-75